sensor_id;sensor_type;location;lat;lon;timestamp;P1;durP1;ratioP1;P2;durP2;ratioP2
59374;SDS011;45172;55.006;73.460;2022-11-12T12:35:39;18.10;;;7.78;;
59374;SDS011;45172;55.006;73.460;2022-11-12T12:38:19;25.73;;;13.45;;
59374;SDS011;45172;55.006;73.460;2022-11-12T12:56:47;15.55;;;8.10;;
59374;SDS011;45172;55.006;73.460;2022-11-12T13:00:39;16.52;;;8.02;;
59374;SDS011;45172;55.006;73.460;2022-11-12T13:03:49;21.98;;;11.60;;
59374;SDS011;45172;55.006;73.460;2022-11-12T13:06:34;19.67;;;10.10;;
59374;SDS011;45172;55.006;73.460;2022-11-12T13:16:58;20.17;;;11.68;;
59374;SDS011;45172;55.006;73.460;2022-11-12T13:19:30;22.60;;;7.28;;
59374;SDS011;45172;55.006;73.460;2022-11-12T13:43:44;14.13;;;6.50;;
59374;SDS011;45172;55.006;73.460;2022-11-12T13:46:28;13.43;;;6.97;;
59374;SDS011;45172;55.006;73.460;2022-11-12T13:49:09;21.35;;;10.07;;
59374;SDS011;45172;55.006;73.460;2022-11-12T13:51:40;14.38;;;7.20;;
59374;SDS011;45172;55.006;73.460;2022-11-12T13:59:55;13.27;;;7.35;;
59374;SDS011;45172;55.006;73.460;2022-11-12T14:02:32;16.25;;;7.60;;
59374;SDS011;45172;55.006;73.460;2022-11-12T14:05:13;18.38;;;11.48;;
59374;SDS011;45172;55.006;73.460;2022-11-12T14:10:34;15.25;;;8.80;;
59374;SDS011;45172;55.006;73.460;2022-11-12T14:24:38;12.68;;;6.32;;
59374;SDS011;45172;55.006;73.460;2022-11-12T14:30:12;11.23;;;6.38;;
59374;SDS011;45172;55.006;73.460;2022-11-12T14:32:52;16.17;;;8.18;;
59374;SDS011;45172;55.006;73.460;2022-11-12T14:35:31;13.20;;;6.50;;
59374;SDS011;45172;55.006;73.460;2022-11-12T14:40:29;10.35;;;6.63;;
59374;SDS011;45172;55.006;73.460;2022-11-12T14:43:03;12.45;;;6.38;;
59374;SDS011;45172;55.006;73.460;2022-11-12T14:45:36;16.98;;;7.22;;
59374;SDS011;45172;55.006;73.460;2022-11-12T14:48:02;12.98;;;7.00;;
59374;SDS011;45172;55.006;73.460;2022-11-12T14:50:34;8.75;;;5.38;;
59374;SDS011;45172;55.006;73.460;2022-11-12T14:53:10;11.52;;;5.65;;
59374;SDS011;45172;55.006;73.460;2022-11-12T14:55:46;9.88;;;6.25;;
59374;SDS011;45172;55.006;73.460;2022-11-12T14:58:14;9.98;;;6.55;;
59374;SDS011;45172;55.006;73.460;2022-11-12T15:00:45;12.23;;;6.93;;
59374;SDS011;45172;55.006;73.460;2022-11-12T15:03:19;15.73;;;7.93;;
59374;SDS011;45172;55.006;73.460;2022-11-12T15:05:54;13.93;;;7.60;;
59374;SDS011;45172;55.006;73.460;2022-11-12T15:08:29;11.95;;;6.95;;
59374;SDS011;45172;55.006;73.460;2022-11-12T15:11:17;15.73;;;7.35;;
59374;SDS011;45172;55.006;73.460;2022-11-12T15:13:49;21.15;;;8.25;;
59374;SDS011;45172;55.006;73.460;2022-11-12T15:16:19;10.05;;;5.13;;
59374;SDS011;45172;55.006;73.460;2022-11-12T15:19:03;11.60;;;6.38;;
59374;SDS011;45172;55.006;73.460;2022-11-12T15:21:58;8.48;;;4.00;;
59374;SDS011;45172;55.006;73.460;2022-11-12T15:24:30;9.60;;;5.68;;
59374;SDS011;45172;55.006;73.460;2022-11-12T15:26:59;12.52;;;5.60;;
59374;SDS011;45172;55.006;73.460;2022-11-12T15:29:33;12.82;;;6.30;;
59374;SDS011;45172;55.006;73.460;2022-11-12T15:32:26;7.53;;;4.32;;
59374;SDS011;45172;55.006;73.460;2022-11-12T15:34:46;8.52;;;4.55;;
59374;SDS011;45172;55.006;73.460;2022-11-12T15:39:43;11.50;;;5.25;;
59374;SDS011;45172;55.006;73.460;2022-11-12T15:42:15;9.48;;;4.95;;
59374;SDS011;45172;55.006;73.460;2022-11-12T15:44:49;9.00;;;5.05;;
59374;SDS011;45172;55.006;73.460;2022-11-12T15:47:21;9.20;;;3.55;;
59374;SDS011;45172;55.006;73.460;2022-11-12T15:49:53;6.53;;;3.63;;
59374;SDS011;45172;55.006;73.460;2022-11-12T15:52:21;7.40;;;4.20;;
59374;SDS011;45172;55.006;73.460;2022-11-12T15:54:47;8.65;;;4.10;;
59374;SDS011;45172;55.006;73.460;2022-11-12T15:57:15;9.70;;;4.80;;
59374;SDS011;45172;55.006;73.460;2022-11-12T15:59:50;9.32;;;4.55;;
59374;SDS011;45172;55.006;73.460;2022-11-12T16:02:27;20.33;;;8.52;;
59374;SDS011;45172;55.006;73.460;2022-11-12T16:04:55;10.57;;;5.55;;
59374;SDS011;45172;55.006;73.460;2022-11-12T16:07:20;19.13;;;8.60;;
59374;SDS011;45172;55.006;73.460;2022-11-12T16:09:46;14.40;;;7.32;;
59374;SDS011;45172;55.006;73.460;2022-11-12T16:12:17;13.27;;;6.53;;
59374;SDS011;45172;55.006;73.460;2022-11-12T16:14:49;9.85;;;4.65;;
59374;SDS011;45172;55.006;73.460;2022-11-12T16:17:15;8.95;;;4.57;;
59374;SDS011;45172;55.006;73.460;2022-11-12T16:19:48;15.10;;;5.78;;
59374;SDS011;45172;55.006;73.460;2022-11-12T16:22:13;16.98;;;5.85;;
59374;SDS011;45172;55.006;73.460;2022-11-12T16:24:40;20.33;;;6.57;;
59374;SDS011;45172;55.006;73.460;2022-11-12T16:27:16;13.43;;;5.00;;
59374;SDS011;45172;55.006;73.460;2022-11-12T16:29:44;16.80;;;7.10;;
59374;SDS011;45172;55.006;73.460;2022-11-12T16:32:11;14.77;;;6.97;;
59374;SDS011;45172;55.006;73.460;2022-11-12T16:34:38;10.38;;;5.85;;
59374;SDS011;45172;55.006;73.460;2022-11-12T16:37:07;8.25;;;5.00;;
59374;SDS011;45172;55.006;73.460;2022-11-12T16:39:36;7.88;;;4.43;;
59374;SDS011;45172;55.006;73.460;2022-11-12T16:42:02;6.40;;;4.53;;
59374;SDS011;45172;55.006;73.460;2022-11-12T16:44:38;6.82;;;4.10;;
59374;SDS011;45172;55.006;73.460;2022-11-12T16:47:04;4.25;;;3.17;;
59374;SDS011;45172;55.006;73.460;2022-11-12T16:49:31;3.92;;;3.03;;
59374;SDS011;45172;55.006;73.460;2022-11-12T16:51:57;4.35;;;3.20;;
59374;SDS011;45172;55.006;73.460;2022-11-12T16:54:33;5.55;;;3.75;;
59374;SDS011;45172;55.006;73.460;2022-11-12T16:56:59;5.07;;;3.83;;
59374;SDS011;45172;55.006;73.460;2022-11-12T16:59:35;6.07;;;3.65;;
59374;SDS011;45172;55.006;73.460;2022-11-12T17:02:12;6.88;;;4.22;;
59374;SDS011;45172;55.006;73.460;2022-11-12T17:04:46;7.55;;;4.05;;
59374;SDS011;45172;55.006;73.460;2022-11-12T17:07:12;7.38;;;4.13;;
59374;SDS011;45172;55.006;73.460;2022-11-12T17:09:49;9.50;;;5.00;;
59374;SDS011;45172;55.006;73.460;2022-11-12T17:12:16;7.25;;;4.35;;
59374;SDS011;45172;55.006;73.460;2022-11-12T17:14:43;14.30;;;6.97;;
59374;SDS011;45172;55.006;73.460;2022-11-12T17:17:09;18.70;;;7.93;;
59374;SDS011;45172;55.006;73.460;2022-11-12T17:19:46;13.48;;;6.38;;
59374;SDS011;45172;55.006;73.460;2022-11-12T17:22:13;17.50;;;9.05;;
59374;SDS011;45172;55.006;73.460;2022-11-12T17:24:41;22.73;;;9.00;;
59374;SDS011;45172;55.006;73.460;2022-11-12T17:27:08;16.65;;;8.15;;
59374;SDS011;45172;55.006;73.460;2022-11-12T17:29:33;14.45;;;7.95;;
59374;SDS011;45172;55.006;73.460;2022-11-12T17:32:00;9.55;;;5.93;;
59374;SDS011;45172;55.006;73.460;2022-11-12T17:34:26;11.50;;;7.00;;
59374;SDS011;45172;55.006;73.460;2022-11-12T17:37:02;10.07;;;5.22;;
59374;SDS011;45172;55.006;73.460;2022-11-12T17:39:30;11.77;;;6.65;;
59374;SDS011;45172;55.006;73.460;2022-11-12T17:42:05;9.23;;;5.40;;
59374;SDS011;45172;55.006;73.460;2022-11-12T17:44:31;4.97;;;3.45;;
59374;SDS011;45172;55.006;73.460;2022-11-12T17:46:57;5.20;;;3.88;;
59374;SDS011;45172;55.006;73.460;2022-11-12T17:49:23;7.65;;;4.80;;
59374;SDS011;45172;55.006;73.460;2022-11-12T17:51:55;10.32;;;5.55;;
59374;SDS011;45172;55.006;73.460;2022-11-12T17:54:31;6.93;;;4.68;;
59374;SDS011;45172;55.006;73.460;2022-11-12T17:56:58;8.63;;;5.10;;
59374;SDS011;45172;55.006;73.460;2022-11-12T17:59:26;9.52;;;5.30;;
59374;SDS011;45172;55.006;73.460;2022-11-12T18:01:57;8.43;;;4.72;;
59374;SDS011;45172;55.006;73.460;2022-11-12T18:04:23;11.50;;;4.97;;
59374;SDS011;45172;55.006;73.460;2022-11-12T18:06:55;12.20;;;4.80;;
59374;SDS011;45172;55.006;73.460;2022-11-12T18:09:22;9.32;;;5.32;;
59374;SDS011;45172;55.006;73.460;2022-11-12T18:11:49;8.90;;;5.25;;
59374;SDS011;45172;55.006;73.460;2022-11-12T18:14:21;9.07;;;5.50;;
59374;SDS011;45172;55.006;73.460;2022-11-12T18:16:50;13.25;;;5.47;;
59374;SDS011;45172;55.006;73.460;2022-11-12T18:19:16;10.10;;;6.07;;
59374;SDS011;45172;55.006;73.460;2022-11-12T18:21:43;8.90;;;5.55;;
59374;SDS011;45172;55.006;73.460;2022-11-12T18:26:46;8.23;;;5.53;;
59374;SDS011;45172;55.006;73.460;2022-11-12T18:29:14;9.80;;;5.80;;
59374;SDS011;45172;55.006;73.460;2022-11-12T18:31:40;9.90;;;5.28;;
59374;SDS011;45172;55.006;73.460;2022-11-12T18:34:14;11.00;;;5.78;;
59374;SDS011;45172;55.006;73.460;2022-11-12T18:36:40;11.47;;;5.53;;
59374;SDS011;45172;55.006;73.460;2022-11-12T18:39:07;14.65;;;7.28;;
59374;SDS011;45172;55.006;73.460;2022-11-12T18:41:38;13.98;;;7.40;;
59374;SDS011;45172;55.006;73.460;2022-11-12T18:44:09;14.68;;;7.70;;
59374;SDS011;45172;55.006;73.460;2022-11-12T18:46:35;10.13;;;6.78;;
59374;SDS011;45172;55.006;73.460;2022-11-12T18:49:12;16.55;;;7.97;;
59374;SDS011;45172;55.006;73.460;2022-11-12T18:51:38;11.13;;;7.70;;
59374;SDS011;45172;55.006;73.460;2022-11-12T18:54:14;11.90;;;7.55;;
59374;SDS011;45172;55.006;73.460;2022-11-12T18:56:47;13.70;;;7.38;;
59374;SDS011;45172;55.006;73.460;2022-11-12T18:59:18;15.80;;;9.27;;
59374;SDS011;45172;55.006;73.460;2022-11-12T19:01:43;12.82;;;7.95;;
59374;SDS011;45172;55.006;73.460;2022-11-12T19:04:10;15.65;;;7.28;;
59374;SDS011;45172;55.006;73.460;2022-11-12T19:06:36;10.93;;;7.13;;
59374;SDS011;45172;55.006;73.460;2022-11-12T19:09:07;10.77;;;7.10;;
59374;SDS011;45172;55.006;73.460;2022-11-12T19:11:36;14.73;;;7.50;;
59374;SDS011;45172;55.006;73.460;2022-11-12T19:14:07;13.43;;;7.70;;
59374;SDS011;45172;55.006;73.460;2022-11-12T19:16:34;13.75;;;8.02;;
59374;SDS011;45172;55.006;73.460;2022-11-12T19:19:00;16.52;;;8.02;;
59374;SDS011;45172;55.006;73.460;2022-11-12T19:21:36;9.93;;;6.30;;
59374;SDS011;45172;55.006;73.460;2022-11-12T19:24:03;13.93;;;7.90;;
59374;SDS011;45172;55.006;73.460;2022-11-12T19:26:30;12.98;;;8.18;;
59374;SDS011;45172;55.006;73.460;2022-11-12T19:28:56;18.80;;;7.82;;
59374;SDS011;45172;55.006;73.460;2022-11-12T19:31:27;18.27;;;9.52;;
59374;SDS011;45172;55.006;73.460;2022-11-12T19:33:58;21.30;;;8.63;;
59374;SDS011;45172;55.006;73.460;2022-11-12T19:36:25;25.13;;;10.02;;
59374;SDS011;45172;55.006;73.460;2022-11-12T19:38:58;28.88;;;10.80;;
59374;SDS011;45172;55.006;73.460;2022-11-12T19:41:27;28.52;;;11.88;;
59374;SDS011;45172;55.006;73.460;2022-11-12T19:43:52;18.10;;;9.25;;
59374;SDS011;45172;55.006;73.460;2022-11-12T19:46:19;21.95;;;9.57;;
59374;SDS011;45172;55.006;73.460;2022-11-12T19:48:45;18.95;;;9.25;;
59374;SDS011;45172;55.006;73.460;2022-11-12T19:51:11;12.27;;;7.43;;
59374;SDS011;45172;55.006;73.460;2022-11-12T19:53:43;20.02;;;9.35;;
59374;SDS011;45172;55.006;73.460;2022-11-12T19:56:14;14.20;;;7.88;;
59374;SDS011;45172;55.006;73.460;2022-11-12T19:58:50;19.92;;;9.50;;
59374;SDS011;45172;55.006;73.460;2022-11-12T20:01:19;15.18;;;7.40;;
59374;SDS011;45172;55.006;73.460;2022-11-12T20:03:45;15.93;;;8.45;;
59374;SDS011;45172;55.006;73.460;2022-11-12T20:06:12;16.92;;;9.20;;
59374;SDS011;45172;55.006;73.460;2022-11-12T20:08:46;17.55;;;9.50;;
59374;SDS011;45172;55.006;73.460;2022-11-12T20:11:12;12.20;;;7.30;;
59374;SDS011;45172;55.006;73.460;2022-11-12T20:13:40;12.98;;;8.13;;
59374;SDS011;45172;55.006;73.460;2022-11-12T20:16:06;15.82;;;8.02;;
59374;SDS011;45172;55.006;73.460;2022-11-12T20:18:34;14.27;;;8.13;;
59374;SDS011;45172;55.006;73.460;2022-11-12T20:21:00;18.17;;;8.52;;
59374;SDS011;45172;55.006;73.460;2022-11-12T20:26:30;16.92;;;9.27;;
59374;SDS011;45172;55.006;73.460;2022-11-12T20:29:01;14.15;;;7.90;;
59374;SDS011;45172;55.006;73.460;2022-11-12T20:31:28;14.55;;;8.25;;
59374;SDS011;45172;55.006;73.460;2022-11-12T20:34:02;12.93;;;8.10;;
59374;SDS011;45172;55.006;73.460;2022-11-12T20:36:28;16.67;;;8.25;;
59374;SDS011;45172;55.006;73.460;2022-11-12T20:38:55;13.55;;;9.07;;
59374;SDS011;45172;55.006;73.460;2022-11-12T20:41:33;16.60;;;8.30;;
59374;SDS011;45172;55.006;73.460;2022-11-12T20:43:59;14.18;;;8.43;;
59374;SDS011;45172;55.006;73.460;2022-11-12T20:46:25;17.00;;;8.27;;
59374;SDS011;45172;55.006;73.460;2022-11-12T20:48:52;11.90;;;7.63;;
59374;SDS011;45172;55.006;73.460;2022-11-12T20:51:20;14.95;;;8.25;;
59374;SDS011;45172;55.006;73.460;2022-11-12T20:53:48;15.30;;;8.40;;
59374;SDS011;45172;55.006;73.460;2022-11-12T20:56:16;11.90;;;7.00;;
59374;SDS011;45172;55.006;73.460;2022-11-12T20:58:46;8.93;;;5.68;;
59374;SDS011;45172;55.006;73.460;2022-11-12T21:01:24;9.93;;;5.88;;
59374;SDS011;45172;55.006;73.460;2022-11-12T21:03:51;9.02;;;6.53;;
59374;SDS011;45172;55.006;73.460;2022-11-12T21:26:36;8.82;;;6.20;;
59374;SDS011;45172;55.006;73.460;2022-11-12T21:29:01;7.80;;;5.43;;
59374;SDS011;45172;55.006;73.460;2022-11-12T21:31:29;8.82;;;6.07;;
59374;SDS011;45172;55.006;73.460;2022-11-12T21:34:04;9.80;;;5.65;;
59374;SDS011;45172;55.006;73.460;2022-11-12T21:36:32;12.43;;;6.22;;
59374;SDS011;45172;55.006;73.460;2022-11-12T21:39:00;9.93;;;5.90;;
59374;SDS011;45172;55.006;73.460;2022-11-12T21:41:27;9.93;;;5.80;;
59374;SDS011;45172;55.006;73.460;2022-11-12T21:43:53;9.50;;;6.03;;
59374;SDS011;45172;55.006;73.460;2022-11-12T21:48:53;6.45;;;4.65;;
59374;SDS011;45172;55.006;73.460;2022-11-12T21:51:20;8.85;;;5.40;;
59374;SDS011;45172;55.006;73.460;2022-11-12T21:53:46;8.68;;;5.65;;
59374;SDS011;45172;55.006;73.460;2022-11-12T21:56:13;9.27;;;6.22;;
59374;SDS011;45172;55.006;73.460;2022-11-12T21:58:38;8.70;;;6.22;;
59374;SDS011;45172;55.006;73.460;2022-11-12T22:01:08;8.65;;;6.38;;
59374;SDS011;45172;55.006;73.460;2022-11-12T22:03:34;12.60;;;6.55;;
59374;SDS011;45172;55.006;73.460;2022-11-12T22:06:05;10.80;;;6.65;;
59374;SDS011;45172;55.006;73.460;2022-11-12T22:08:31;8.25;;;5.88;;
59374;SDS011;45172;55.006;73.460;2022-11-12T22:11:04;9.52;;;6.20;;
59374;SDS011;45172;55.006;73.460;2022-11-12T22:13:30;9.45;;;5.13;;
59374;SDS011;45172;55.006;73.460;2022-11-12T22:16:14;8.18;;;6.55;;
59374;SDS011;45172;55.006;73.460;2022-11-12T22:18:40;9.67;;;5.73;;
59374;SDS011;45172;55.006;73.460;2022-11-12T22:21:13;12.25;;;6.63;;
59374;SDS011;45172;55.006;73.460;2022-11-12T22:23:39;7.55;;;5.45;;
59374;SDS011;45172;55.006;73.460;2022-11-12T22:26:06;9.00;;;5.88;;
59374;SDS011;45172;55.006;73.460;2022-11-12T22:28:34;10.00;;;6.10;;
59374;SDS011;45172;55.006;73.460;2022-11-12T22:31:03;13.00;;;7.45;;
59374;SDS011;45172;55.006;73.460;2022-11-12T22:33:29;9.38;;;6.63;;
59374;SDS011;45172;55.006;73.460;2022-11-12T22:35:59;8.90;;;6.63;;
59374;SDS011;45172;55.006;73.460;2022-11-12T22:38:25;10.40;;;7.03;;
59374;SDS011;45172;55.006;73.460;2022-11-12T22:40:50;11.50;;;7.22;;
59374;SDS011;45172;55.006;73.460;2022-11-12T22:43:21;12.45;;;7.07;;
59374;SDS011;45172;55.006;73.460;2022-11-12T22:46:20;10.35;;;7.32;;
59374;SDS011;45172;55.006;73.460;2022-11-12T22:48:52;10.45;;;6.78;;
59374;SDS011;45172;55.006;73.460;2022-11-12T22:51:24;10.43;;;7.35;;
59374;SDS011;45172;55.006;73.460;2022-11-12T22:53:55;11.70;;;7.80;;
59374;SDS011;45172;55.006;73.460;2022-11-12T22:56:25;11.02;;;7.05;;
59374;SDS011;45172;55.006;73.460;2022-11-12T22:59:02;10.38;;;6.70;;
59374;SDS011;45172;55.006;73.460;2022-11-12T23:01:30;12.35;;;7.78;;
59374;SDS011;45172;55.006;73.460;2022-11-12T23:04:03;13.18;;;7.30;;
59374;SDS011;45172;55.006;73.460;2022-11-12T23:06:38;9.85;;;6.80;;
59374;SDS011;45172;55.006;73.460;2022-11-12T23:09:04;11.73;;;7.32;;
59374;SDS011;45172;55.006;73.460;2022-11-12T23:11:36;9.57;;;6.10;;
59374;SDS011;45172;55.006;73.460;2022-11-12T23:16:53;12.55;;;6.95;;
59374;SDS011;45172;55.006;73.460;2022-11-12T23:19:28;12.68;;;7.32;;
59374;SDS011;45172;55.006;73.460;2022-11-12T23:22:03;12.98;;;6.72;;
59374;SDS011;45172;55.006;73.460;2022-11-12T23:24:28;13.25;;;7.40;;
59374;SDS011;45172;55.006;73.460;2022-11-12T23:26:54;12.43;;;8.05;;
59374;SDS011;45172;55.006;73.460;2022-11-12T23:29:20;14.90;;;8.55;;
59374;SDS011;45172;55.006;73.460;2022-11-12T23:31:46;14.70;;;8.40;;
59374;SDS011;45172;55.006;73.460;2022-11-12T23:34:11;13.65;;;8.48;;
59374;SDS011;45172;55.006;73.460;2022-11-12T23:36:48;12.85;;;7.68;;
59374;SDS011;45172;55.006;73.460;2022-11-12T23:39:14;17.42;;;9.13;;
59374;SDS011;45172;55.006;73.460;2022-11-12T23:41:39;17.70;;;10.45;;
59374;SDS011;45172;55.006;73.460;2022-11-12T23:44:11;13.50;;;8.45;;
59374;SDS011;45172;55.006;73.460;2022-11-12T23:46:37;14.02;;;7.45;;
59374;SDS011;45172;55.006;73.460;2022-11-12T23:49:12;9.30;;;6.07;;
59374;SDS011;45172;55.006;73.460;2022-11-12T23:51:48;10.32;;;5.80;;
59374;SDS011;45172;55.006;73.460;2022-11-12T23:54:26;10.80;;;6.32;;
59374;SDS011;45172;55.006;73.460;2022-11-12T23:56:52;11.45;;;7.35;;
59374;SDS011;45172;55.006;73.460;2022-11-12T23:59:27;12.95;;;7.30;;
